sensor_id;sensor_type;location;lat;lon;timestamp;P1;durP1;ratioP1;P2;durP2;ratioP2
30948;SDS011;17637;51.984;21.208;2022-07-29T00:04:20;24.65;;;16.00;;
30948;SDS011;17637;51.984;21.208;2022-07-29T00:09:24;27.60;;;17.23;;
30948;SDS011;17637;51.984;21.208;2022-07-29T00:14:29;27.38;;;15.82;;
30948;SDS011;17637;51.984;21.208;2022-07-29T00:19:32;23.73;;;15.45;;
30948;SDS011;17637;51.984;21.208;2022-07-29T00:24:36;21.63;;;14.00;;
30948;SDS011;17637;51.984;21.208;2022-07-29T00:29:41;14.93;;;10.20;;
30948;SDS011;17637;51.984;21.208;2022-07-29T00:34:44;12.63;;;9.48;;
30948;SDS011;17637;51.984;21.208;2022-07-29T00:40:06;11.85;;;8.15;;
30948;SDS011;17637;51.984;21.208;2022-07-29T00:45:12;12.55;;;9.00;;
30948;SDS011;17637;51.984;21.208;2022-07-29T00:50:16;15.00;;;10.02;;
30948;SDS011;17637;51.984;21.208;2022-07-29T00:55:19;10.73;;;9.10;;
30948;SDS011;17637;51.984;21.208;2022-07-29T01:00:25;14.20;;;11.25;;
30948;SDS011;17637;51.984;21.208;2022-07-29T01:05:29;19.02;;;13.30;;
30948;SDS011;17637;51.984;21.208;2022-07-29T01:10:52;23.60;;;15.05;;
30948;SDS011;17637;51.984;21.208;2022-07-29T01:15:59;20.60;;;14.55;;
30948;SDS011;17637;51.984;21.208;2022-07-29T01:21:18;18.13;;;14.68;;
30948;SDS011;17637;51.984;21.208;2022-07-29T01:26:35;15.27;;;10.95;;
30948;SDS011;17637;51.984;21.208;2022-07-29T01:31:48;14.98;;;11.55;;
30948;SDS011;17637;51.984;21.208;2022-07-29T01:37:02;15.90;;;11.90;;
30948;SDS011;17637;51.984;21.208;2022-07-29T01:42:12;19.65;;;11.77;;
30948;SDS011;17637;51.984;21.208;2022-07-29T01:47:23;14.82;;;11.85;;
30948;SDS011;17637;51.984;21.208;2022-07-29T01:52:31;12.25;;;8.85;;
30948;SDS011;17637;51.984;21.208;2022-07-29T01:57:39;14.10;;;10.63;;
30948;SDS011;17637;51.984;21.208;2022-07-29T02:02:46;13.30;;;8.48;;
30948;SDS011;17637;51.984;21.208;2022-07-29T02:07:50;11.38;;;9.45;;
30948;SDS011;17637;51.984;21.208;2022-07-29T02:12:55;13.40;;;9.25;;
30948;SDS011;17637;51.984;21.208;2022-07-29T02:18:02;10.80;;;8.38;;
30948;SDS011;17637;51.984;21.208;2022-07-29T02:23:09;16.00;;;8.60;;
30948;SDS011;17637;51.984;21.208;2022-07-29T02:28:14;10.30;;;7.90;;
30948;SDS011;17637;51.984;21.208;2022-07-29T02:33:20;10.50;;;6.35;;
30948;SDS011;17637;51.984;21.208;2022-07-29T02:38:25;11.27;;;7.93;;
30948;SDS011;17637;51.984;21.208;2022-07-29T02:43:50;10.60;;;8.48;;
30948;SDS011;17637;51.984;21.208;2022-07-29T02:49:02;11.50;;;9.43;;
30948;SDS011;17637;51.984;21.208;2022-07-29T02:54:16;11.73;;;8.52;;
30948;SDS011;17637;51.984;21.208;2022-07-29T02:59:24;11.90;;;7.55;;
30948;SDS011;17637;51.984;21.208;2022-07-29T03:04:31;12.98;;;6.88;;
30948;SDS011;17637;51.984;21.208;2022-07-29T03:09:36;11.60;;;5.85;;
30948;SDS011;17637;51.984;21.208;2022-07-29T03:14:41;14.13;;;8.40;;
30948;SDS011;17637;51.984;21.208;2022-07-29T03:19:47;12.80;;;9.30;;
30948;SDS011;17637;51.984;21.208;2022-07-29T03:24:50;16.92;;;12.20;;
30948;SDS011;17637;51.984;21.208;2022-07-29T03:29:53;13.02;;;11.63;;
30948;SDS011;17637;51.984;21.208;2022-07-29T03:34:58;12.88;;;9.48;;
30948;SDS011;17637;51.984;21.208;2022-07-29T03:40:02;13.85;;;10.10;;
30948;SDS011;17637;51.984;21.208;2022-07-29T03:45:08;13.20;;;8.57;;
30948;SDS011;17637;51.984;21.208;2022-07-29T03:50:16;12.30;;;7.63;;
30948;SDS011;17637;51.984;21.208;2022-07-29T03:55:21;12.85;;;6.70;;
30948;SDS011;17637;51.984;21.208;2022-07-29T04:00:25;9.32;;;6.65;;
30948;SDS011;17637;51.984;21.208;2022-07-29T04:05:31;10.50;;;6.70;;
30948;SDS011;17637;51.984;21.208;2022-07-29T04:10:34;9.93;;;6.05;;
30948;SDS011;17637;51.984;21.208;2022-07-29T04:15:37;8.90;;;5.68;;
30948;SDS011;17637;51.984;21.208;2022-07-29T04:20:42;9.35;;;5.60;;
30948;SDS011;17637;51.984;21.208;2022-07-29T04:25:45;9.25;;;4.50;;
30948;SDS011;17637;51.984;21.208;2022-07-29T04:30:48;8.25;;;4.75;;
30948;SDS011;17637;51.984;21.208;2022-07-29T04:35:53;12.07;;;4.55;;
30948;SDS011;17637;51.984;21.208;2022-07-29T04:40:56;8.20;;;4.30;;
30948;SDS011;17637;51.984;21.208;2022-07-29T04:45:59;6.78;;;4.13;;
30948;SDS011;17637;51.984;21.208;2022-07-29T04:51:04;6.43;;;3.97;;
30948;SDS011;17637;51.984;21.208;2022-07-29T04:56:07;5.20;;;3.78;;
30948;SDS011;17637;51.984;21.208;2022-07-29T05:01:11;6.53;;;2.92;;
30948;SDS011;17637;51.984;21.208;2022-07-29T05:06:15;3.92;;;2.92;;
30948;SDS011;17637;51.984;21.208;2022-07-29T05:11:18;8.48;;;3.53;;
30948;SDS011;17637;51.984;21.208;2022-07-29T05:16:24;7.22;;;2.80;;
30948;SDS011;17637;51.984;21.208;2022-07-29T05:21:29;4.85;;;3.00;;
30948;SDS011;17637;51.984;21.208;2022-07-29T05:26:33;6.70;;;3.35;;
30948;SDS011;17637;51.984;21.208;2022-07-29T05:31:36;4.78;;;3.08;;
30948;SDS011;17637;51.984;21.208;2022-07-29T05:36:40;4.75;;;2.67;;
30948;SDS011;17637;51.984;21.208;2022-07-29T05:41:43;4.20;;;2.35;;
30948;SDS011;17637;51.984;21.208;2022-07-29T05:46:52;5.93;;;2.55;;
30948;SDS011;17637;51.984;21.208;2022-07-29T05:51:57;4.15;;;2.25;;
30948;SDS011;17637;51.984;21.208;2022-07-29T05:57:00;4.82;;;2.58;;
30948;SDS011;17637;51.984;21.208;2022-07-29T06:02:04;5.22;;;2.53;;
30948;SDS011;17637;51.984;21.208;2022-07-29T06:07:13;7.05;;;2.20;;
30948;SDS011;17637;51.984;21.208;2022-07-29T06:12:16;8.15;;;2.33;;
30948;SDS011;17637;51.984;21.208;2022-07-29T06:17:19;5.03;;;2.20;;
30948;SDS011;17637;51.984;21.208;2022-07-29T06:22:23;4.75;;;2.00;;
30948;SDS011;17637;51.984;21.208;2022-07-29T06:27:27;4.47;;;1.90;;
30948;SDS011;17637;51.984;21.208;2022-07-29T06:32:30;5.72;;;1.60;;
30948;SDS011;17637;51.984;21.208;2022-07-29T06:37:34;4.20;;;1.60;;
30948;SDS011;17637;51.984;21.208;2022-07-29T06:42:41;4.20;;;1.42;;
30948;SDS011;17637;51.984;21.208;2022-07-29T06:47:45;3.53;;;1.42;;
30948;SDS011;17637;51.984;21.208;2022-07-29T06:52:49;3.03;;;1.40;;
30948;SDS011;17637;51.984;21.208;2022-07-29T06:57:52;4.22;;;1.13;;
30948;SDS011;17637;51.984;21.208;2022-07-29T07:02:56;1.52;;;1.10;;
30948;SDS011;17637;51.984;21.208;2022-07-29T07:08:00;3.85;;;1.40;;
30948;SDS011;17637;51.984;21.208;2022-07-29T07:13:03;6.57;;;1.50;;
30948;SDS011;17637;51.984;21.208;2022-07-29T07:18:08;4.20;;;1.27;;
30948;SDS011;17637;51.984;21.208;2022-07-29T07:23:12;2.33;;;1.30;;
30948;SDS011;17637;51.984;21.208;2022-07-29T07:28:15;5.55;;;1.10;;
30948;SDS011;17637;51.984;21.208;2022-07-29T07:33:18;5.10;;;1.55;;
30948;SDS011;17637;51.984;21.208;2022-07-29T07:38:23;2.40;;;1.23;;
30948;SDS011;17637;51.984;21.208;2022-07-29T07:43:26;3.80;;;1.30;;
30948;SDS011;17637;51.984;21.208;2022-07-29T07:48:29;2.80;;;1.40;;
30948;SDS011;17637;51.984;21.208;2022-07-29T07:53:34;3.20;;;1.27;;
30948;SDS011;17637;51.984;21.208;2022-07-29T07:58:37;2.78;;;1.50;;
30948;SDS011;17637;51.984;21.208;2022-07-29T08:03:41;6.57;;;1.65;;
30948;SDS011;17637;51.984;21.208;2022-07-29T08:08:45;3.17;;;1.48;;
30948;SDS011;17637;51.984;21.208;2022-07-29T08:13:48;6.47;;;1.20;;
30948;SDS011;17637;51.984;21.208;2022-07-29T08:18:51;5.68;;;1.60;;
30948;SDS011;17637;51.984;21.208;2022-07-29T08:24:00;3.95;;;1.48;;
30948;SDS011;17637;51.984;21.208;2022-07-29T08:29:22;2.97;;;1.27;;
30948;SDS011;17637;51.984;21.208;2022-07-29T08:34:25;3.60;;;1.10;;
30948;SDS011;17637;51.984;21.208;2022-07-29T08:39:30;4.65;;;1.45;;
30948;SDS011;17637;51.984;21.208;2022-07-29T08:44:33;2.47;;;0.98;;
30948;SDS011;17637;51.984;21.208;2022-07-29T08:49:37;3.55;;;1.30;;
30948;SDS011;17637;51.984;21.208;2022-07-29T08:54:43;4.93;;;1.25;;
30948;SDS011;17637;51.984;21.208;2022-07-29T08:59:46;2.28;;;0.85;;
30948;SDS011;17637;51.984;21.208;2022-07-29T09:04:52;2.15;;;1.05;;
30948;SDS011;17637;51.984;21.208;2022-07-29T09:09:57;4.30;;;1.27;;
30948;SDS011;17637;51.984;21.208;2022-07-29T09:15:00;4.70;;;1.20;;
30948;SDS011;17637;51.984;21.208;2022-07-29T09:20:07;2.33;;;1.00;;
30948;SDS011;17637;51.984;21.208;2022-07-29T09:25:13;3.53;;;1.20;;
30948;SDS011;17637;51.984;21.208;2022-07-29T09:30:16;5.35;;;1.25;;
30948;SDS011;17637;51.984;21.208;2022-07-29T09:35:32;6.03;;;0.90;;
30948;SDS011;17637;51.984;21.208;2022-07-29T09:40:36;2.95;;;1.02;;
30948;SDS011;17637;51.984;21.208;2022-07-29T09:45:40;3.63;;;1.00;;
30948;SDS011;17637;51.984;21.208;2022-07-29T09:50:43;3.92;;;1.10;;
30948;SDS011;17637;51.984;21.208;2022-07-29T09:55:51;2.05;;;0.80;;
30948;SDS011;17637;51.984;21.208;2022-07-29T10:00:54;4.03;;;0.98;;
30948;SDS011;17637;51.984;21.208;2022-07-29T10:06:05;3.53;;;0.98;;
30948;SDS011;17637;51.984;21.208;2022-07-29T10:11:12;3.60;;;0.90;;
30948;SDS011;17637;51.984;21.208;2022-07-29T10:16:17;1.70;;;0.90;;
30948;SDS011;17637;51.984;21.208;2022-07-29T10:21:20;12.02;;;1.40;;
30948;SDS011;17637;51.984;21.208;2022-07-29T10:26:39;3.22;;;1.10;;
30948;SDS011;17637;51.984;21.208;2022-07-29T10:31:44;2.67;;;1.10;;
30948;SDS011;17637;51.984;21.208;2022-07-29T10:36:56;4.38;;;1.10;;
30948;SDS011;17637;51.984;21.208;2022-07-29T10:42:13;7.43;;;1.20;;
30948;SDS011;17637;51.984;21.208;2022-07-29T10:47:21;3.28;;;1.00;;
30948;SDS011;17637;51.984;21.208;2022-07-29T10:52:25;2.13;;;1.02;;
30948;SDS011;17637;51.984;21.208;2022-07-29T11:25:37;3.95;;;1.20;;
30948;SDS011;17637;51.984;21.208;2022-07-29T11:30:55;3.35;;;1.02;;
30948;SDS011;17637;51.984;21.208;2022-07-29T11:36:08;2.78;;;1.10;;
30948;SDS011;17637;51.984;21.208;2022-07-29T11:41:24;3.97;;;1.20;;
30948;SDS011;17637;51.984;21.208;2022-07-29T11:46:44;3.13;;;0.80;;
30948;SDS011;17637;51.984;21.208;2022-07-29T11:51:50;3.13;;;0.67;;
30948;SDS011;17637;51.984;21.208;2022-07-29T11:56:54;4.18;;;1.00;;
30948;SDS011;17637;51.984;21.208;2022-07-29T12:01:59;3.08;;;1.08;;
30948;SDS011;17637;51.984;21.208;2022-07-29T12:07:26;2.13;;;0.80;;
30948;SDS011;17637;51.984;21.208;2022-07-29T12:12:36;3.63;;;0.77;;
30948;SDS011;17637;51.984;21.208;2022-07-29T12:17:42;2.53;;;0.90;;
30948;SDS011;17637;51.984;21.208;2022-07-29T12:22:45;3.45;;;0.70;;
30948;SDS011;17637;51.984;21.208;2022-07-29T12:27:57;3.20;;;0.95;;
30948;SDS011;17637;51.984;21.208;2022-07-29T12:33:09;2.90;;;0.90;;
30948;SDS011;17637;51.984;21.208;2022-07-29T12:38:13;4.40;;;0.95;;
30948;SDS011;17637;51.984;21.208;2022-07-29T12:43:18;3.03;;;0.98;;
30948;SDS011;17637;51.984;21.208;2022-07-29T12:48:33;1.88;;;0.88;;
30948;SDS011;17637;51.984;21.208;2022-07-29T12:53:38;2.78;;;1.00;;
30948;SDS011;17637;51.984;21.208;2022-07-29T12:58:41;3.50;;;1.23;;
30948;SDS011;17637;51.984;21.208;2022-07-29T13:03:48;2.95;;;0.73;;
30948;SDS011;17637;51.984;21.208;2022-07-29T13:08:59;1.17;;;0.77;;
30948;SDS011;17637;51.984;21.208;2022-07-29T13:14:04;2.78;;;0.70;;
30948;SDS011;17637;51.984;21.208;2022-07-29T13:19:10;1.63;;;0.77;;
30948;SDS011;17637;51.984;21.208;2022-07-29T13:24:14;4.95;;;1.50;;
30948;SDS011;17637;51.984;21.208;2022-07-29T13:29:21;3.67;;;0.70;;
30948;SDS011;17637;51.984;21.208;2022-07-29T13:34:25;2.00;;;1.20;;
30948;SDS011;17637;51.984;21.208;2022-07-29T13:39:28;4.30;;;1.00;;
30948;SDS011;17637;51.984;21.208;2022-07-29T13:44:32;3.53;;;1.10;;
30948;SDS011;17637;51.984;21.208;2022-07-29T13:49:37;2.50;;;0.70;;
30948;SDS011;17637;51.984;21.208;2022-07-29T13:54:40;3.00;;;1.05;;
30948;SDS011;17637;51.984;21.208;2022-07-29T13:59:43;2.20;;;0.82;;
30948;SDS011;17637;51.984;21.208;2022-07-29T14:04:54;1.70;;;0.85;;
30948;SDS011;17637;51.984;21.208;2022-07-29T14:09:57;2.35;;;0.88;;
30948;SDS011;17637;51.984;21.208;2022-07-29T14:15:00;5.55;;;1.00;;
30948;SDS011;17637;51.984;21.208;2022-07-29T14:20:06;2.38;;;0.70;;
30948;SDS011;17637;51.984;21.208;2022-07-29T14:25:09;1.00;;;0.63;;
30948;SDS011;17637;51.984;21.208;2022-07-29T14:30:16;2.67;;;1.20;;
30948;SDS011;17637;51.984;21.208;2022-07-29T14:35:21;1.58;;;0.90;;
30948;SDS011;17637;51.984;21.208;2022-07-29T14:40:24;2.25;;;0.82;;
30948;SDS011;17637;51.984;21.208;2022-07-29T14:45:28;3.15;;;1.00;;
30948;SDS011;17637;51.984;21.208;2022-07-29T14:50:32;1.45;;;0.70;;
30948;SDS011;17637;51.984;21.208;2022-07-29T14:55:36;3.67;;;0.93;;
30948;SDS011;17637;51.984;21.208;2022-07-29T15:00:39;4.70;;;0.90;;
30948;SDS011;17637;51.984;21.208;2022-07-29T15:05:44;1.60;;;0.80;;
30948;SDS011;17637;51.984;21.208;2022-07-29T15:10:47;3.92;;;0.90;;
30948;SDS011;17637;51.984;21.208;2022-07-29T15:15:50;2.38;;;0.80;;
30948;SDS011;17637;51.984;21.208;2022-07-29T15:20:59;3.65;;;0.73;;
30948;SDS011;17637;51.984;21.208;2022-07-29T15:26:04;2.22;;;1.00;;
30948;SDS011;17637;51.984;21.208;2022-07-29T15:31:07;5.68;;;0.90;;
30948;SDS011;17637;51.984;21.208;2022-07-29T15:36:12;3.78;;;0.90;;
30948;SDS011;17637;51.984;21.208;2022-07-29T15:41:35;2.33;;;0.93;;
30948;SDS011;17637;51.984;21.208;2022-07-29T15:46:38;3.25;;;0.98;;
30948;SDS011;17637;51.984;21.208;2022-07-29T15:52:03;3.92;;;0.93;;
30948;SDS011;17637;51.984;21.208;2022-07-29T15:57:10;2.85;;;0.73;;
30948;SDS011;17637;51.984;21.208;2022-07-29T16:02:14;1.77;;;0.85;;
30948;SDS011;17637;51.984;21.208;2022-07-29T16:07:18;8.52;;;1.10;;
30948;SDS011;17637;51.984;21.208;2022-07-29T16:12:21;2.15;;;0.93;;
30948;SDS011;17637;51.984;21.208;2022-07-29T16:17:24;3.72;;;1.08;;
30948;SDS011;17637;51.984;21.208;2022-07-29T16:22:30;1.67;;;0.82;;
30948;SDS011;17637;51.984;21.208;2022-07-29T16:27:34;5.93;;;0.88;;
30948;SDS011;17637;51.984;21.208;2022-07-29T16:32:39;5.20;;;1.00;;
30948;SDS011;17637;51.984;21.208;2022-07-29T16:37:43;3.83;;;0.90;;
30948;SDS011;17637;51.984;21.208;2022-07-29T16:42:47;3.03;;;1.02;;
30948;SDS011;17637;51.984;21.208;2022-07-29T16:47:51;1.98;;;1.00;;
30948;SDS011;17637;51.984;21.208;2022-07-29T16:53:02;4.15;;;0.82;;
30948;SDS011;17637;51.984;21.208;2022-07-29T16:58:05;9.90;;;7.50;;
30948;SDS011;17637;51.984;21.208;2022-07-29T17:03:08;3.83;;;1.45;;
30948;SDS011;17637;51.984;21.208;2022-07-29T17:08:15;5.53;;;4.50;;
30948;SDS011;17637;51.984;21.208;2022-07-29T17:13:19;6.00;;;1.60;;
30948;SDS011;17637;51.984;21.208;2022-07-29T17:18:22;5.18;;;1.40;;
30948;SDS011;17637;51.984;21.208;2022-07-29T17:23:27;4.93;;;1.50;;
30948;SDS011;17637;51.984;21.208;2022-07-29T17:28:30;5.47;;;2.17;;
30948;SDS011;17637;51.984;21.208;2022-07-29T17:33:34;5.97;;;2.13;;
30948;SDS011;17637;51.984;21.208;2022-07-29T17:38:39;5.03;;;1.98;;
30948;SDS011;17637;51.984;21.208;2022-07-29T17:43:43;4.90;;;1.58;;
30948;SDS011;17637;51.984;21.208;2022-07-29T17:48:46;4.25;;;1.25;;
30948;SDS011;17637;51.984;21.208;2022-07-29T17:53:51;5.57;;;1.40;;
30948;SDS011;17637;51.984;21.208;2022-07-29T17:58:54;2.53;;;1.10;;
30948;SDS011;17637;51.984;21.208;2022-07-29T18:03:58;4.47;;;1.13;;
30948;SDS011;17637;51.984;21.208;2022-07-29T18:09:02;5.47;;;1.42;;
30948;SDS011;17637;51.984;21.208;2022-07-29T18:14:06;4.07;;;1.50;;
30948;SDS011;17637;51.984;21.208;2022-07-29T18:19:08;5.40;;;1.90;;
30948;SDS011;17637;51.984;21.208;2022-07-29T18:24:13;4.35;;;2.00;;
30948;SDS011;17637;51.984;21.208;2022-07-29T18:29:16;5.70;;;2.13;;
30948;SDS011;17637;51.984;21.208;2022-07-29T18:34:19;6.95;;;2.60;;
30948;SDS011;17637;51.984;21.208;2022-07-29T18:39:24;5.32;;;2.95;;
30948;SDS011;17637;51.984;21.208;2022-07-29T18:44:27;8.50;;;3.50;;
30948;SDS011;17637;51.984;21.208;2022-07-29T18:49:30;6.95;;;2.88;;
30948;SDS011;17637;51.984;21.208;2022-07-29T18:54:35;7.13;;;2.53;;
30948;SDS011;17637;51.984;21.208;2022-07-29T18:59:37;5.50;;;2.30;;
30948;SDS011;17637;51.984;21.208;2022-07-29T19:04:41;8.65;;;2.22;;
30948;SDS011;17637;51.984;21.208;2022-07-29T19:09:46;7.13;;;2.50;;
30948;SDS011;17637;51.984;21.208;2022-07-29T19:14:50;5.88;;;2.25;;
30948;SDS011;17637;51.984;21.208;2022-07-29T19:19:53;4.38;;;2.70;;
30948;SDS011;17637;51.984;21.208;2022-07-29T19:24:58;5.65;;;2.28;;
30948;SDS011;17637;51.984;21.208;2022-07-29T19:30:01;6.25;;;2.50;;
30948;SDS011;17637;51.984;21.208;2022-07-29T19:35:07;5.38;;;2.00;;
30948;SDS011;17637;51.984;21.208;2022-07-29T19:40:27;5.88;;;2.00;;
30948;SDS011;17637;51.984;21.208;2022-07-29T19:45:31;5.65;;;1.85;;
30948;SDS011;17637;51.984;21.208;2022-07-29T19:50:34;9.45;;;1.92;;
30948;SDS011;17637;51.984;21.208;2022-07-29T19:55:39;5.05;;;1.80;;
30948;SDS011;17637;51.984;21.208;2022-07-29T20:00:43;3.70;;;1.77;;
30948;SDS011;17637;51.984;21.208;2022-07-29T20:05:47;5.63;;;2.05;;
30948;SDS011;17637;51.984;21.208;2022-07-29T20:10:55;4.38;;;2.17;;
30948;SDS011;17637;51.984;21.208;2022-07-29T20:15:58;6.00;;;2.20;;
30948;SDS011;17637;51.984;21.208;2022-07-29T20:21:02;4.97;;;2.50;;
30948;SDS011;17637;51.984;21.208;2022-07-29T20:26:07;3.40;;;1.90;;
30948;SDS011;17637;51.984;21.208;2022-07-29T20:31:10;5.88;;;1.73;;
30948;SDS011;17637;51.984;21.208;2022-07-29T20:36:16;5.55;;;2.03;;
30948;SDS011;17637;51.984;21.208;2022-07-29T20:41:21;4.60;;;2.05;;
30948;SDS011;17637;51.984;21.208;2022-07-29T20:46:24;6.57;;;2.33;;
30948;SDS011;17637;51.984;21.208;2022-07-29T20:51:27;4.13;;;1.70;;
30948;SDS011;17637;51.984;21.208;2022-07-29T20:56:32;2.95;;;1.98;;
30948;SDS011;17637;51.984;21.208;2022-07-29T21:01:35;2.83;;;1.80;;
30948;SDS011;17637;51.984;21.208;2022-07-29T21:06:38;4.15;;;1.80;;
30948;SDS011;17637;51.984;21.208;2022-07-29T21:11:42;6.03;;;2.15;;
30948;SDS011;17637;51.984;21.208;2022-07-29T21:16:46;3.15;;;1.77;;
30948;SDS011;17637;51.984;21.208;2022-07-29T21:21:49;3.28;;;1.67;;
30948;SDS011;17637;51.984;21.208;2022-07-29T21:26:54;4.55;;;1.80;;
30948;SDS011;17637;51.984;21.208;2022-07-29T21:32:22;7.38;;;2.28;;
30948;SDS011;17637;51.984;21.208;2022-07-29T21:37:31;4.20;;;1.80;;
30948;SDS011;17637;51.984;21.208;2022-07-29T21:42:35;6.15;;;1.77;;
30948;SDS011;17637;51.984;21.208;2022-07-29T21:47:38;4.43;;;1.50;;
30948;SDS011;17637;51.984;21.208;2022-07-29T21:52:41;3.17;;;1.67;;
30948;SDS011;17637;51.984;21.208;2022-07-29T21:57:46;3.63;;;1.70;;
30948;SDS011;17637;51.984;21.208;2022-07-29T22:02:50;2.80;;;1.48;;
30948;SDS011;17637;51.984;21.208;2022-07-29T22:07:53;5.80;;;1.90;;
30948;SDS011;17637;51.984;21.208;2022-07-29T22:13:00;5.68;;;1.80;;
30948;SDS011;17637;51.984;21.208;2022-07-29T22:18:04;4.47;;;1.63;;
30948;SDS011;17637;51.984;21.208;2022-07-29T22:23:07;3.03;;;1.70;;
30948;SDS011;17637;51.984;21.208;2022-07-29T22:28:12;3.17;;;1.75;;
30948;SDS011;17637;51.984;21.208;2022-07-29T22:33:15;3.63;;;1.80;;
30948;SDS011;17637;51.984;21.208;2022-07-29T22:38:19;5.82;;;1.60;;
30948;SDS011;17637;51.984;21.208;2022-07-29T22:43:23;3.95;;;1.20;;
30948;SDS011;17637;51.984;21.208;2022-07-29T22:48:27;6.30;;;1.85;;
30948;SDS011;17637;51.984;21.208;2022-07-29T22:53:30;4.13;;;1.85;;
30948;SDS011;17637;51.984;21.208;2022-07-29T22:58:34;3.53;;;1.27;;
30948;SDS011;17637;51.984;21.208;2022-07-29T23:03:37;3.88;;;1.50;;
30948;SDS011;17637;51.984;21.208;2022-07-29T23:08:41;3.05;;;1.30;;
30948;SDS011;17637;51.984;21.208;2022-07-29T23:13:45;6.88;;;1.70;;
30948;SDS011;17637;51.984;21.208;2022-07-29T23:18:48;4.47;;;1.50;;
30948;SDS011;17637;51.984;21.208;2022-07-29T23:23:53;4.85;;;1.40;;
30948;SDS011;17637;51.984;21.208;2022-07-29T23:28:58;4.82;;;1.58;;
30948;SDS011;17637;51.984;21.208;2022-07-29T23:34:01;3.20;;;1.33;;
30948;SDS011;17637;51.984;21.208;2022-07-29T23:39:04;6.65;;;1.67;;
30948;SDS011;17637;51.984;21.208;2022-07-29T23:44:13;5.70;;;1.50;;
30948;SDS011;17637;51.984;21.208;2022-07-29T23:49:17;2.80;;;1.30;;
30948;SDS011;17637;51.984;21.208;2022-07-29T23:54:20;1.80;;;1.23;;
30948;SDS011;17637;51.984;21.208;2022-07-29T23:59:25;2.30;;;1.50;;
